Flower Mound, Texas
Current Conditions -  °F | °C
As of 11:53 AM on Saturday 25 Oct 2014 (Local Time) from KDFW Reporting Station
Clear Clear  
Wind Chill: 79°   Ceiling: Unl
Heat Index: 80°   Visibility: 10mi
Dew Point: 61°   Wind: 10mph
Humidity: 54%   Direction: 230°SW
Pressure: 30.14"   Gusts: NA
Location:  33.03°N, 97.06°W
Report Text: KDFW 251653Z 23009KT 10SM CLR 26/16 A3014 RMK AO2 SLP198 T02610161
Loading
Personal Weather Stations






























Interactive Weather Map
Tropical Storm Tracking
New forecast layout! Learn more

10-Day Weather Forecast

Advertisements
Track Severe Weather on mobile